Bethlehem, PA

1:46 AM EDT on October 17, 2017 (GMT -0400)
Fountain Hill - Near ST Lukes hosp. | | Change Station
Active Advisory: Frost Advisory

Elev 400 ft 40.61 °N, 75.40 °W | Updated 12 seconds ago

Clear
Clear
41.4 °F
Feels Like 41 °F
N
1.6
Wind Variable Wind from West
Gusts 3.1 mph

Today
High -- | Low -- °F
--% Chance of Precip.
Yesterday
High -- | Low -- °F
Precip. -- in
Pressure 30.27 in
Visibility 10.0 miles
Clouds Clear
Windchill 41 °F
Dew Point 34 °F
Humidity 75%
Rainfall 0.00 in
Snow Depth Not available.
7:15 AM 6:18 PM
Waning Crescent, 7% visible
METAR KABE 170451Z 32004KT 10SM CLR 06/M01 A3026 RMK AO2 SLP249 T00611006 401890061
Pressure 30.27 in
Visibility 10.0 miles
Clouds Clear
Windchill 41 °F
Dew Point 34 °F
Humidity 75%
Rainfall 0.00 in
Snow Depth Not available.
7:15 AM 6:18 PM
Waning Crescent, 7% visible
METAR KABE 170451Z 32004KT 10SM CLR 06/M01 A3026 RMK AO2 SLP249 T00611006 401890061

Get Your Daily Forecast Email!

Thanks for signing up!

Be on the lookout for a verification email in your inbox.

You'll start receiving severe weather alerts in your inbox..

×

10-Day Weather Forecast

Almanac

Astronomy

Oct. 17, 2017 Rise Set
Actual Time
Civil Twilight
Nautical Twilight
Astronomical Twilight
Moon
Length of Visible Light
Length of Day
Tomorrow will be .
, % of the Moon is Illuminated

Today's Extremes

State Highs State Lows

Community

WunderPhotos

Category 6

Welcome to Category 6. This is the collective home for Weather Underground's featured writeups by Dr. Jeff Masters (right), Bob Henson (left), Chris Burt, and other regular contributors.

Nearby

Air Quality

  Air Quality AQ Index Pollutant
Not available.

Snow Depth

Station Depth Elevation

Earthquake Activity

City Distance Mag. Time & Date
Minimum magnitude displayed is 2.5.

Coastal Water Temperatures

Place Temperature

Stations

Nearby Weather Stations

Station Location Temp. Windchill Dew Point Humidity Wind Precip. Elev Updated Type
                   

Watches & Warnings

Frost Advisory
Issued: 2:47 PM EDT Oct. 16, 2017 – National Weather Service

... Frost advisory remains in effect from 4 am to 9 am EDT
Tuesday...

* locations... north central New Jersey into the Lehigh Valley of
east central Pennsylvania.

* Low temperatures... mostly in the lower to mid 30s.

* Timing... late tonight into Tuesday morning.

* Impacts... sensitive plants may be killed by frost or freezing
temperatures of 30 to 32 degrees.


Precautionary/preparedness actions...

A frost advisory means that a fairly widespread frost is
expected. Sensitive outdoor plants may be killed if left
uncovered.